Time;durP1;ratioP1;P1;durP2;ratioP2;P2;SDS_P1;SDS_P2;PMS_P1;PMS_P2;Temp;Humidity;BMP_temperature;BMP_pressure;BME280_temperature;BME280_humidity;BME280_pressure;Samples;Min_cycle;Max_cycle;Signal;HPM_P1;HPM_P2
2022/09/10 00:00:31;;;;;;;2.67;1.47;;;22.20;58.80;;;;;;4976540;28;20449;-47
2022/09/10 00:02:56;;;;;;;2.90;1.40;;;22.20;58.50;;;;;;4979658;28;20469;-49
2022/09/10 00:05:22;;;;;;;4.10;1.47;;;22.20;58.60;;;;;;4983633;28;20469;-46
2022/09/10 00:07:47;;;;;;;2.60;1.30;;;22.10;58.70;;;;;;4978708;28;20691;-47
2022/09/10 00:10:13;;;;;;;2.20;1.20;;;22.10;59.00;;;;;;4980398;28;20197;-47
2022/09/10 00:12:40;;;;;;;1.87;1.30;;;22.10;59.10;;;;;;4978651;28;20199;-48
2022/09/10 00:15:06;;;;;;;1.53;1.10;;;22.20;58.90;;;;;;4983183;28;20293;-48
2022/09/10 00:17:32;;;;;;;2.87;1.50;;;22.10;58.50;;;;;;4983089;28;20506;-47
2022/09/10 00:20:01;;;;;;;1.60;1.33;;;22.20;58.70;;;;;;4978583;28;20454;-47
2022/09/10 00:22:26;;;;;;;2.27;1.60;;;22.20;59.00;;;;;;4984424;28;20571;-50
2022/09/10 00:24:58;;;;;;;3.53;1.23;;;22.20;59.20;;;;;;4986265;28;20493;-47
2022/09/10 00:27:25;;;;;;;3.70;1.40;;;22.10;59.00;;;;;;4982956;28;20199;-47
2022/09/10 00:29:52;;;;;;;2.67;1.00;;;22.10;58.90;;;;;;4983797;28;20515;-48
2022/09/10 00:32:17;;;;;;;2.40;1.43;;;22.10;59.10;;;;;;4984529;28;20438;-47
2022/09/10 00:34:43;;;;;;;1.70;1.10;;;22.10;59.00;;;;;;4986431;28;20446;-48
2022/09/10 00:37:09;;;;;;;3.90;1.00;;;21.90;59.10;;;;;;4987838;28;20202;-47
2022/09/10 00:39:34;;;;;;;2.70;1.20;;;21.80;59.20;;;;;;4988025;28;20246;-48
2022/09/10 00:42:00;;;;;;;1.80;1.33;;;21.70;59.50;;;;;;4985364;28;20630;-46
2022/09/10 00:44:40;;;;;;;1.80;1.50;;;21.60;59.70;;;;;;4987769;28;20223;-47
2022/09/10 00:47:32;;;;;;;1.90;1.43;;;21.50;60.20;;;;;;4990034;28;20193;-46
2022/09/10 00:50:05;;;;;;;2.87;1.30;;;21.50;61.00;;;;;;4990156;28;20511;-46
2022/09/10 00:52:32;;;;;;;2.47;1.47;;;21.20;62.20;;;;;;4985339;28;20476;-50
2022/09/10 00:54:58;;;;;;;4.33;1.67;;;20.70;63.80;;;;;;4989246;28;20576;-46
2022/09/10 00:57:27;;;;;;;1.53;1.40;;;20.80;64.50;;;;;;4989027;28;20944;-46
2022/09/10 00:59:59;;;;;;;1.70;1.20;;;20.90;63.50;;;;;;4989372;28;20464;-49
2022/09/10 01:02:25;;;;;;;2.40;1.30;;;20.90;63.40;;;;;;4987339;28;20950;-50
2022/09/10 01:04:51;;;;;;;2.17;1.27;;;21.00;63.40;;;;;;4984395;28;20543;-50
2022/09/10 01:07:18;;;;;;;3.40;1.40;;;21.00;63.40;;;;;;4986484;28;21298;-51
2022/09/10 01:09:44;;;;;;;4.20;1.43;;;21.10;63.00;;;;;;4983549;28;20433;-51
2022/09/10 01:12:19;;;;;;;2.90;1.30;;;21.30;62.50;;;;;;4985046;28;20452;-51
2022/09/10 01:15:24;;;;;;;4.03;1.27;;;21.40;62.00;;;;;;4991230;28;20202;-48
2022/09/10 01:18:04;;;;;;;3.50;1.40;;;21.30;62.10;;;;;;5008035;28;20544;-50
2022/09/10 01:20:39;;;;;;;1.80;1.33;;;21.40;62.40;;;;;;4986058;28;20841;-48
2022/09/10 01:25:53;;;;;;;3.93;1.70;;;21.40;62.40;;;;;;5050179;28;20638;-46
2022/09/10 01:28:32;;;;;;;3.40;1.73;;;21.30;62.10;;;;;;5057927;28;20530;-50
2022/09/10 01:31:04;;;;;;;2.13;1.20;;;21.30;62.30;;;;;;5055190;28;20451;-47
2022/09/10 01:33:36;;;;;;;3.13;1.30;;;21.20;62.30;;;;;;5059093;28;20535;-50
2022/09/10 01:36:12;;;;;;;1.97;1.30;;;21.20;62.20;;;;;;5061491;28;20446;-50
2022/09/10 01:38:40;;;;;;;3.13;1.57;;;21.20;62.40;;;;;;5054633;28;20449;-49
2022/09/10 01:41:07;;;;;;;3.50;2.00;;;21.00;63.20;;;;;;5050409;28;20474;-50
2022/09/10 01:43:33;;;;;;;8.03;1.73;;;20.80;64.00;;;;;;5052660;28;20439;-49
2022/09/10 01:46:18;;;;;;;6.60;1.77;;;20.90;64.80;;;;;;5052463;28;20442;-46
2022/09/10 01:49:04;;;;;;;1.70;1.30;;;20.70;65.40;;;;;;5046293;28;20469;-47
2022/09/10 01:51:47;;;;;;;3.80;1.40;;;20.80;65.30;;;;;;5056875;28;20445;-46
2022/09/10 01:54:59;;;;;;;1.97;1.30;;;20.90;65.30;;;;;;5054755;28;21410;-49
2022/09/10 01:57:32;;;;;;;3.40;1.10;;;20.90;65.60;;;;;;5048186;28;21785;-48
2022/09/10 02:00:10;;;;;;;3.27;1.30;;;20.90;65.20;;;;;;5046393;28;20489;-50
2022/09/10 02:03:00;;;;;;;2.70;1.47;;;20.90;65.10;;;;;;5045606;28;20455;-50
2022/09/10 02:05:29;;;;;;;2.13;1.17;;;20.90;65.00;;;;;;5051620;28;20494;-51
2022/09/10 02:08:02;;;;;;;1.73;1.10;;;20.90;64.90;;;;;;5046771;28;20538;-50
2022/09/10 02:10:28;;;;;;;3.77;1.70;;;20.90;64.90;;;;;;5050127;28;20439;-51
2022/09/10 02:12:54;;;;;;;3.03;1.10;;;20.90;65.30;;;;;;5056999;28;20492;-51
2022/09/10 02:15:22;;;;;;;2.57;1.03;;;20.90;65.50;;;;;;5057622;28;20196;-51
2022/09/10 02:17:48;;;;;;;3.87;1.17;;;21.00;65.50;;;;;;5058022;28;20443;-46
2022/09/10 02:20:14;;;;;;;1.83;1.00;;;21.00;65.50;;;;;;5054872;28;20431;-50
2022/09/10 02:22:48;;;;;;;1.07;0.97;;;20.90;65.40;;;;;;5057106;28;20206;-51
2022/09/10 02:25:14;;;;;;;2.50;1.50;;;20.90;65.40;;;;;;5055496;28;20888;-51
2022/09/10 02:27:40;;;;;;;1.57;1.30;;;20.60;66.60;;;;;;5052745;28;20458;-47
2022/09/10 02:30:07;;;;;;;1.40;1.20;;;20.30;67.60;;;;;;5046103;28;20274;-47
2022/09/10 02:32:33;;;;;;;1.53;1.30;;;20.10;68.60;;;;;;5048105;28;20466;-47
2022/09/10 02:34:58;;;;;;;2.23;1.30;;;20.10;69.00;;;;;;5048451;28;20517;-48
2022/09/10 02:37:24;;;;;;;2.50;1.40;;;20.00;69.30;;;;;;5043834;28;20267;-47
2022/09/10 02:39:49;;;;;;;3.00;1.50;;;20.00;69.30;;;;;;5048056;28;20207;-46
2022/09/10 02:42:16;;;;;;;2.40;1.30;;;20.00;69.60;;;;;;5037791;28;20220;-46
2022/09/10 02:44:43;;;;;;;3.40;1.80;;;20.00;70.10;;;;;;5033623;28;20256;-46
2022/09/10 02:47:09;;;;;;;2.83;1.57;;;19.90;70.30;;;;;;5039174;28;20515;-47
2022/09/10 02:49:35;;;;;;;7.83;1.70;;;20.00;70.30;;;;;;5032638;28;20558;-46
2022/09/10 02:52:03;;;;;;;3.03;1.47;;;20.00;70.60;;;;;;5044378;28;20561;-46
2022/09/10 02:54:29;;;;;;;1.77;1.20;;;20.00;70.60;;;;;;5033417;28;20541;-50
2022/09/10 02:56:55;;;;;;;3.63;1.50;;;19.90;70.60;;;;;;5033148;28;20435;-49
2022/09/10 02:59:22;;;;;;;1.20;1.10;;;19.90;70.70;;;;;;5041741;28;20611;-46
2022/09/10 03:01:47;;;;;;;2.90;1.67;;;20.00;70.30;;;;;;5041765;28;20443;-49
2022/09/10 03:04:14;;;;;;;1.80;1.30;;;20.10;70.00;;;;;;5055191;28;20494;-46
2022/09/10 03:06:41;;;;;;;2.00;1.30;;;20.10;69.50;;;;;;5045800;28;20197;-50
2022/09/10 03:09:07;;;;;;;3.90;1.20;;;20.30;69.20;;;;;;5038550;28;20608;-46
2022/09/10 03:11:33;;;;;;;1.83;1.47;;;20.30;68.90;;;;;;5040438;28;20526;-48
2022/09/10 03:13:59;;;;;;;3.33;1.20;;;20.20;69.00;;;;;;5038105;28;20785;-46
2022/09/10 03:16:24;;;;;;;3.53;1.60;;;20.30;68.90;;;;;;5034053;28;20451;-49
2022/09/10 03:18:51;;;;;;;1.50;1.40;;;20.20;68.50;;;;;;5037471;28;20207;-47
2022/09/10 03:21:21;;;;;;;2.10;1.43;;;20.00;69.90;;;;;;5034742;28;20188;-46
2022/09/10 03:23:49;;;;;;;3.30;1.87;;;19.80;70.40;;;;;;5048530;28;20957;-49
2022/09/10 03:26:17;;;;;;;2.10;1.50;;;19.80;70.90;;;;;;5043635;28;20558;-46
2022/09/10 03:28:44;;;;;;;3.50;1.97;;;19.70;71.50;;;;;;5033162;28;20838;-47
2022/09/10 03:31:10;;;;;;;1.77;1.60;;;19.60;71.70;;;;;;5033717;28;21237;-46
2022/09/10 03:33:39;;;;;;;2.70;1.40;;;19.30;72.60;;;;;;5043575;28;20480;-51
2022/09/10 03:36:11;;;;;;;2.37;1.60;;;19.10;74.00;;;;;;5032991;28;20812;-48
2022/09/10 03:38:37;;;;;;;2.23;1.40;;;19.20;74.40;;;;;;5037244;28;21594;-50
2022/09/10 03:41:03;;;;;;;1.50;1.30;;;19.20;74.50;;;;;;5037132;28;20522;-50
2022/09/10 03:43:29;;;;;;;1.60;1.50;;;19.20;74.10;;;;;;5041490;28;20598;-48
2022/09/10 03:45:54;;;;;;;2.90;1.57;;;19.20;74.00;;;;;;5031677;28;20204;-45
2022/09/10 03:48:21;;;;;;;3.40;1.30;;;19.30;74.20;;;;;;5045063;28;20440;-46
2022/09/10 03:50:49;;;;;;;2.73;1.07;;;19.40;73.40;;;;;;5039030;28;20605;-46
2022/09/10 03:53:16;;;;;;;3.90;1.50;;;19.30;73.20;;;;;;5052623;28;20446;-46
2022/09/10 03:55:43;;;;;;;2.90;1.23;;;19.30;73.30;;;;;;5035648;28;20856;-48
2022/09/10 03:58:11;;;;;;;3.30;1.27;;;19.00;73.70;;;;;;5029552;28;20444;-45
2022/09/10 04:00:36;;;;;;;3.53;1.37;;;18.80;75.00;;;;;;5030829;28;20519;-50
2022/09/10 04:03:04;;;;;;;2.67;1.70;;;18.90;74.80;;;;;;5039938;28;20574;-50
2022/09/10 04:05:31;;;;;;;1.97;1.40;;;19.00;74.20;;;;;;5040747;28;20224;-50
2022/09/10 04:07:57;;;;;;;1.53;1.37;;;19.10;73.40;;;;;;5036383;28;20447;-50
2022/09/10 04:10:26;;;;;;;1.70;1.17;;;19.30;72.70;;;;;;5035474;28;20805;-50
2022/09/10 04:12:52;;;;;;;2.40;1.67;;;19.30;72.30;;;;;;5038580;28;20988;-49
2022/09/10 04:15:22;;;;;;;3.10;1.20;;;19.30;71.60;;;;;;5037724;28;20463;-50
2022/09/10 04:17:51;;;;;;;2.70;1.20;;;19.50;71.50;;;;;;5040476;28;20713;-48
2022/09/10 04:20:18;;;;;;;1.80;1.23;;;19.70;70.80;;;;;;5044930;28;20529;-50
2022/09/10 04:22:45;;;;;;;1.60;1.40;;;19.80;70.40;;;;;;5031386;28;20476;-51
2022/09/10 04:25:11;;;;;;;1.80;1.30;;;19.80;70.10;;;;;;5037701;28;20524;-50
2022/09/10 04:27:37;;;;;;;5.63;1.70;;;19.90;69.80;;;;;;5038727;28;20455;-46
2022/09/10 04:30:03;;;;;;;4.20;1.20;;;20.00;69.30;;;;;;5032845;28;20454;-50
2022/09/10 04:32:29;;;;;;;3.63;1.43;;;20.10;69.00;;;;;;5028043;28;20645;-50
2022/09/10 04:34:54;;;;;;;3.13;1.50;;;20.20;68.80;;;;;;5028225;28;20463;-51
2022/09/10 04:37:20;;;;;;;1.07;1.07;;;20.20;68.70;;;;;;5029243;28;20197;-48
2022/09/10 04:39:46;;;;;;;1.20;1.10;;;20.20;68.40;;;;;;5030953;28;20199;-46
2022/09/10 04:42:14;;;;;;;2.70;1.13;;;20.20;68.20;;;;;;5040020;28;20199;-51
2022/09/10 04:44:40;;;;;;;1.97;1.10;;;20.30;68.00;;;;;;5027876;28;20239;-49
2022/09/10 04:47:05;;;;;;;1.70;1.20;;;20.30;67.70;;;;;;5052268;28;20443;-46
2022/09/10 04:49:31;;;;;;;1.20;1.10;;;20.20;67.20;;;;;;5049801;28;20207;-50
2022/09/10 04:51:56;;;;;;;4.00;1.30;;;20.30;67.10;;;;;;5040867;28;20196;-48
2022/09/10 04:54:22;;;;;;;1.73;1.10;;;20.30;66.90;;;;;;5044129;28;20555;-50
2022/09/10 04:56:48;;;;;;;0.90;0.90;;;20.30;66.90;;;;;;5046707;28;20281;-46
2022/09/10 04:59:14;;;;;;;1.70;1.20;;;20.30;67.10;;;;;;5042708;28;20196;-50
2022/09/10 05:01:39;;;;;;;1.37;1.00;;;20.30;67.10;;;;;;5032899;28;20442;-49
2022/09/10 05:04:05;;;;;;;2.50;1.30;;;20.40;66.90;;;;;;5033830;28;20672;-50
2022/09/10 05:06:31;;;;;;;1.20;1.10;;;20.40;67.20;;;;;;5039615;28;20249;-46
2022/09/10 05:08:57;;;;;;;2.00;1.40;;;20.40;67.20;;;;;;5042606;28;20552;-48
2022/09/10 05:11:24;;;;;;;2.77;1.30;;;20.30;67.10;;;;;;5036474;28;20282;-49
2022/09/10 05:13:49;;;;;;;1.80;1.20;;;20.40;67.40;;;;;;5042502;28;20534;-46
2022/09/10 05:16:15;;;;;;;3.23;1.30;;;20.50;68.00;;;;;;5038169;28;20559;-48
2022/09/10 05:18:40;;;;;;;5.13;1.37;;;20.50;67.90;;;;;;5041719;28;20673;-46
2022/09/10 05:21:06;;;;;;;1.60;1.07;;;20.50;68.00;;;;;;5039793;28;20193;-48
2022/09/10 05:23:32;;;;;;;2.27;1.30;;;20.50;67.60;;;;;;5046502;28;20644;-51
2022/09/10 05:25:58;;;;;;;2.87;1.90;;;20.50;67.50;;;;;;5030532;28;20852;-46
2022/09/10 05:28:24;;;;;;;4.10;1.30;;;20.60;67.40;;;;;;5029168;28;20200;-46
2022/09/10 05:30:49;;;;;;;1.90;1.13;;;20.70;67.10;;;;;;5030500;28;20446;-46
2022/09/10 05:33:15;;;;;;;1.73;1.07;;;20.70;66.80;;;;;;5036523;28;20196;-47
2022/09/10 05:35:41;;;;;;;2.73;1.50;;;20.60;66.50;;;;;;5041289;28;20200;-46
2022/09/10 05:38:10;;;;;;;1.23;1.10;;;20.70;66.60;;;;;;5049804;28;20203;-47
2022/09/10 05:40:35;;;;;;;1.43;1.07;;;20.70;66.40;;;;;;5046051;28;20354;-47
2022/09/10 05:43:01;;;;;;;4.10;0.97;;;20.80;66.10;;;;;;5044885;28;20935;-46
2022/09/10 05:45:27;;;;;;;2.43;1.00;;;20.80;65.90;;;;;;5048009;28;20270;-47
2022/09/10 05:47:52;;;;;;;1.80;1.10;;;20.80;65.80;;;;;;5043071;28;20527;-46
2022/09/10 05:50:18;;;;;;;3.37;1.07;;;20.90;66.00;;;;;;5039867;28;20193;-48
2022/09/10 05:52:45;;;;;;;1.63;1.10;;;20.80;65.90;;;;;;5048350;28;20283;-46
2022/09/10 05:55:11;;;;;;;1.43;1.07;;;20.90;65.90;;;;;;5038837;28;20434;-46
2022/09/10 05:57:39;;;;;;;2.20;1.30;;;21.00;66.00;;;;;;5041532;28;20446;-46
2022/09/10 06:00:07;;;;;;;2.80;1.23;;;21.00;66.00;;;;;;5044933;28;20286;-47
2022/09/10 06:02:33;;;;;;;2.37;1.10;;;20.90;66.10;;;;;;5037277;28;20850;-46
2022/09/10 06:04:59;;;;;;;1.30;1.10;;;20.90;66.00;;;;;;5044474;28;20518;-46
2022/09/10 06:07:27;;;;;;;3.80;1.10;;;21.00;66.20;;;;;;5035519;28;20220;-47
2022/09/10 06:09:53;;;;;;;1.70;1.00;;;21.10;65.90;;;;;;5048668;28;20423;-47
2022/09/10 06:12:18;;;;;;;2.00;1.20;;;21.10;65.70;;;;;;5050151;28;20797;-45
2022/09/10 06:14:44;;;;;;;1.10;0.97;;;21.10;65.70;;;;;;5048931;28;20235;-48
2022/09/10 06:17:10;;;;;;;3.90;1.10;;;21.10;65.50;;;;;;5041877;28;20188;-46
2022/09/10 06:19:35;;;;;;;6.40;1.33;;;21.10;65.10;;;;;;5034659;28;20612;-46
2022/09/10 06:22:01;;;;;;;3.07;1.40;;;20.90;64.60;;;;;;5041587;28;20193;-46
2022/09/10 06:24:26;;;;;;;5.70;1.37;;;20.80;65.50;;;;;;5039188;28;20399;-47
2022/09/10 06:26:52;;;;;;;6.07;1.40;;;20.90;65.70;;;;;;5034852;28;20288;-50
2022/09/10 06:29:18;;;;;;;2.00;1.00;;;21.10;64.80;;;;;;5038770;28;20186;-46
2022/09/10 06:31:45;;;;;;;4.83;1.17;;;21.20;64.60;;;;;;5044160;28;20676;-51
2022/09/10 06:34:11;;;;;;;3.03;1.30;;;21.30;64.00;;;;;;5036376;28;20447;-47
2022/09/10 06:36:37;;;;;;;3.40;1.23;;;21.50;64.10;;;;;;5050183;28;20936;-46
2022/09/10 06:39:03;;;;;;;3.70;1.00;;;21.60;63.80;;;;;;5048469;28;20197;-46
2022/09/10 06:41:29;;;;;;;2.10;1.03;;;21.70;63.10;;;;;;5058422;28;20224;-46
2022/09/10 06:43:56;;;;;;;3.00;0.90;;;21.70;62.80;;;;;;5043318;28;20847;-47
2022/09/10 06:46:22;;;;;;;0.80;0.80;;;21.80;62.20;;;;;;5048885;28;21582;-51
2022/09/10 06:48:48;;;;;;;1.40;1.30;;;21.70;61.80;;;;;;5046807;28;20535;-46
2022/09/10 06:51:14;;;;;;;2.70;1.20;;;21.80;62.60;;;;;;5044174;28;20511;-46
2022/09/10 06:53:41;;;;;;;1.53;1.20;;;21.80;62.00;;;;;;5043267;28;20607;-46
2022/09/10 06:56:10;;;;;;;2.10;1.00;;;21.70;61.80;;;;;;5045744;28;20524;-46
2022/09/10 06:58:37;;;;;;;1.70;1.03;;;21.60;62.10;;;;;;5043255;28;20482;-46
2022/09/10 07:01:13;;;;;;;1.97;0.90;;;21.50;62.40;;;;;;5041542;28;20443;-46
2022/09/10 07:03:40;;;;;;;1.03;0.87;;;21.60;62.30;;;;;;5049645;28;20526;-46
2022/09/10 07:06:09;;;;;;;3.73;1.20;;;21.60;62.00;;;;;;5050418;28;20957;-50
2022/09/10 07:08:36;;;;;;;2.60;1.00;;;21.50;62.10;;;;;;5051941;28;20424;-50
2022/09/10 07:11:06;;;;;;;2.20;1.07;;;21.60;62.20;;;;;;5049000;28;21007;-50
2022/09/10 07:13:33;;;;;;;1.83;0.93;;;21.70;62.10;;;;;;5046315;28;20949;-47
2022/09/10 07:16:00;;;;;;;2.70;1.00;;;21.70;62.70;;;;;;5050740;28;20443;-50
2022/09/10 07:18:27;;;;;;;3.00;1.10;;;21.90;62.60;;;;;;5052086;28;20795;-51
2022/09/10 07:20:53;;;;;;;1.93;0.83;;;22.00;62.00;;;;;;5046356;28;20509;-48
2022/09/10 07:23:20;;;;;;;1.37;0.93;;;22.10;61.10;;;;;;5047220;28;20922;-50
2022/09/10 07:25:46;;;;;;;1.30;0.80;;;22.30;60.80;;;;;;5047995;28;20521;-49
2022/09/10 07:28:15;;;;;;;1.00;1.00;;;22.30;60.10;;;;;;5051758;28;20426;-49
2022/09/10 07:30:42;;;;;;;1.10;0.97;;;22.30;60.20;;;;;;5046295;28;20462;-50
2022/09/10 07:33:09;;;;;;;2.73;1.23;;;22.30;60.10;;;;;;5049957;28;20442;-47
2022/09/10 07:35:36;;;;;;;1.67;1.00;;;22.20;59.80;;;;;;5051645;28;20977;-47
2022/09/10 07:38:12;;;;;;;1.17;0.97;;;22.10;60.10;;;;;;5048749;28;20453;-51
2022/09/10 07:40:39;;;;;;;6.13;1.30;;;22.00;60.40;;;;;;5051668;28;20431;-46
2022/09/10 07:43:05;;;;;;;2.20;0.97;;;21.90;60.80;;;;;;5047597;28;20834;-50
2022/09/10 07:45:31;;;;;;;2.27;1.00;;;21.90;61.20;;;;;;5051382;28;20561;-49
2022/09/10 07:47:57;;;;;;;1.50;1.00;;;21.80;61.70;;;;;;5047450;28;20448;-46
2022/09/10 07:50:23;;;;;;;1.30;1.20;;;21.60;61.20;;;;;;5042754;28;20188;-47
2022/09/10 07:52:48;;;;;;;1.53;0.90;;;21.50;62.40;;;;;;5050075;28;20590;-45
2022/09/10 07:55:14;;;;;;;1.07;0.90;;;21.70;62.70;;;;;;5051078;28;20200;-50
2022/09/10 07:57:40;;;;;;;3.03;1.33;;;21.80;61.90;;;;;;5050338;28;20208;-46
2022/09/10 08:00:13;;;;;;;1.23;1.00;;;21.80;61.00;;;;;;5040268;28;20196;-48
2022/09/10 08:02:41;;;;;;;1.27;0.83;;;21.80;61.10;;;;;;5049367;28;20212;-47
2022/09/10 08:05:09;;;;;;;1.00;0.90;;;21.70;61.10;;;;;;5043468;28;20882;-46
2022/09/10 08:07:35;;;;;;;1.17;1.07;;;21.80;61.80;;;;;;5051392;28;20447;-45
2022/09/10 08:10:01;;;;;;;4.17;1.03;;;21.80;61.80;;;;;;5041584;28;20463;-45
2022/09/10 08:12:26;;;;;;;1.53;1.00;;;21.90;61.10;;;;;;5051013;28;20427;-49
2022/09/10 08:14:53;;;;;;;1.30;0.80;;;22.00;61.40;;;;;;5049162;28;20238;-45
2022/09/10 08:17:19;;;;;;;1.83;1.00;;;22.00;60.60;;;;;;5051480;28;20255;-46
2022/09/10 08:19:44;;;;;;;1.13;0.93;;;22.00;60.90;;;;;;5047586;28;20961;-46
2022/09/10 08:22:12;;;;;;;1.63;1.00;;;22.00;60.50;;;;;;5050702;28;20201;-48
2022/09/10 08:24:38;;;;;;;1.00;0.90;;;21.90;60.10;;;;;;5044654;28;20708;-46
2022/09/10 08:27:04;;;;;;;1.13;1.03;;;22.00;60.70;;;;;;5048920;28;20530;-46
2022/09/10 08:29:29;;;;;;;2.90;1.10;;;22.10;60.90;;;;;;5051073;28;20200;-50
2022/09/10 08:31:55;;;;;;;2.80;1.60;;;22.00;61.00;;;;;;5046956;28;20192;-46
2022/09/10 08:34:21;;;;;;;2.40;0.80;;;22.00;61.00;;;;;;5050631;28;20589;-45
2022/09/10 08:36:46;;;;;;;1.43;1.00;;;22.10;60.30;;;;;;5045627;28;20197;-45
2022/09/10 08:39:12;;;;;;;4.47;1.13;;;22.10;60.40;;;;;;5049598;28;20447;-46
2022/09/10 08:41:38;;;;;;;1.10;0.90;;;22.00;60.10;;;;;;5038727;28;20192;-45
2022/09/10 08:44:08;;;;;;;1.90;0.97;;;22.00;60.80;;;;;;5050772;28;20486;-45
2022/09/10 08:47:12;;;;;;;3.60;1.07;;;21.90;60.40;;;;;;5041655;28;20641;-46
2022/09/10 08:49:59;;;;;;;2.67;0.93;;;22.00;60.90;;;;;;5050453;28;20435;-46
2022/09/10 08:52:44;;;;;;;3.50;1.20;;;22.20;59.70;;;;;;5030875;28;20502;-46
2022/09/10 08:55:25;;;;;;;1.43;0.90;;;22.20;59.20;;;;;;5048076;28;20439;-45
2022/09/10 08:57:58;;;;;;;3.50;1.00;;;22.10;59.40;;;;;;5048455;28;20450;-46
2022/09/10 09:00:28;;;;;;;1.27;1.03;;;22.10;59.90;;;;;;5035388;28;20791;-46
2022/09/10 09:03:06;;;;;;;2.97;1.10;;;22.10;60.30;;;;;;5044037;28;20432;-46
2022/09/10 09:05:38;;;;;;;1.80;0.87;;;22.20;59.70;;;;;;5037342;28;20487;-46
2022/09/10 09:08:05;;;;;;;2.90;1.13;;;22.20;59.50;;;;;;5046694;28;20440;-46
2022/09/10 09:10:48;;;;;;;1.47;0.90;;;22.00;59.70;;;;;;5036351;28;20516;-50
2022/09/10 09:13:28;;;;;;;1.37;1.00;;;22.20;59.80;;;;;;5041462;28;20451;-48
2022/09/10 09:16:19;;;;;;;1.47;1.00;;;22.30;59.40;;;;;;5029801;28;20830;-48
2022/09/10 09:19:15;;;;;;;1.33;0.93;;;22.50;59.40;;;;;;5035624;28;20453;-49
2022/09/10 09:21:48;;;;;;;0.73;0.73;;;22.60;59.30;;;;;;5040026;28;21465;-50
2022/09/10 09:24:21;;;;;;;2.70;1.00;;;22.70;58.80;;;;;;5036958;28;20496;-47
2022/09/10 09:26:47;;;;;;;1.67;0.97;;;22.80;58.90;;;;;;5032304;28;20455;-47
2022/09/10 09:29:24;;;;;;;1.50;0.80;;;22.90;58.50;;;;;;5047734;28;20949;-49
2022/09/10 09:31:57;;;;;;;2.20;1.03;;;22.90;57.80;;;;;;5043519;28;20655;-50
2022/09/10 09:34:49;;;;;;;2.90;0.83;;;22.90;58.00;;;;;;5039026;28;20451;-50
2022/09/10 09:37:21;;;;;;;1.60;1.10;;;23.10;58.00;;;;;;5030164;28;20448;-50
2022/09/10 09:39:57;;;;;;;1.40;0.93;;;23.20;58.40;;;;;;5043479;28;20435;-48
2022/09/10 09:42:31;;;;;;;1.47;1.37;;;23.30;57.60;;;;;;5039802;28;20447;-45
2022/09/10 09:45:01;;;;;;;2.57;0.83;;;23.50;57.20;;;;;;5037835;28;20849;-47
2022/09/10 09:47:27;;;;;;;1.10;0.90;;;23.50;57.00;;;;;;5042725;28;20450;-46
2022/09/10 09:49:52;;;;;;;1.30;0.80;;;23.50;56.70;;;;;;5049600;28;20443;-46
2022/09/10 09:52:23;;;;;;;4.00;1.30;;;23.30;56.30;;;;;;5042197;28;20751;-47
2022/09/10 09:54:53;;;;;;;5.30;1.40;;;23.20;57.30;;;;;;5050152;28;20287;-46
2022/09/10 09:57:19;;;;;;;2.23;1.20;;;23.00;58.20;;;;;;5045109;28;21160;-47
2022/09/10 09:59:47;;;;;;;2.50;1.30;;;22.40;58.40;;;;;;5050742;28;20439;-47
2022/09/10 10:02:16;;;;;;;3.10;1.40;;;22.10;58.30;;;;;;5049818;28;20439;-46
2022/09/10 10:05:06;;;;;;;2.83;1.40;;;21.80;57.90;;;;;;5037770;28;20978;-46
2022/09/10 10:07:33;;;;;;;1.30;1.10;;;21.50;59.30;;;;;;5049856;28;20446;-49
2022/09/10 10:10:00;;;;;;;2.70;1.23;;;21.60;60.30;;;;;;5042883;28;20447;-50
2022/09/10 10:12:31;;;;;;;2.57;1.20;;;21.80;59.30;;;;;;5044377;28;20450;-47
2022/09/10 10:14:58;;;;;;;2.50;1.03;;;21.80;59.30;;;;;;5046988;28;20444;-46
2022/09/10 10:17:32;;;;;;;2.70;1.20;;;21.90;58.50;;;;;;5052439;28;20431;-46
2022/09/10 10:20:07;;;;;;;4.37;1.40;;;22.10;58.80;;;;;;5038814;28;20547;-47
2022/09/10 10:22:34;;;;;;;3.20;1.00;;;22.20;58.00;;;;;;5039172;28;20454;-50
2022/09/10 10:25:01;;;;;;;1.63;1.10;;;22.10;57.40;;;;;;5051263;28;20559;-47
2022/09/10 10:27:36;;;;;;;4.03;1.13;;;22.20;57.40;;;;;;5044703;28;20446;-51
2022/09/10 10:30:21;;;;;;;2.20;0.90;;;22.00;57.40;;;;;;5047392;28;20460;-50
2022/09/10 10:32:50;;;;;;;2.43;1.10;;;21.90;57.60;;;;;;5042253;28;20450;-46
2022/09/10 10:35:28;;;;;;;2.50;1.17;;;21.60;57.90;;;;;;5038975;28;20906;-45
2022/09/10 10:37:59;;;;;;;2.77;1.43;;;21.40;58.90;;;;;;5036955;28;20508;-46
2022/09/10 10:40:33;;;;;;;2.73;0.90;;;21.30;60.60;;;;;;5048691;28;20454;-48
2022/09/10 10:43:20;;;;;;;2.77;1.00;;;21.30;60.50;;;;;;5047526;28;20808;-47
2022/09/10 10:46:00;;;;;;;1.50;1.00;;;21.40;61.90;;;;;;5050276;28;20996;-47
2022/09/10 10:48:34;;;;;;;1.43;1.03;;;21.30;62.60;;;;;;5050918;28;20435;-47
2022/09/10 10:51:08;;;;;;;1.80;1.00;;;21.40;63.80;;;;;;5049863;28;20537;-48
2022/09/10 10:53:48;;;;;;;2.60;1.10;;;21.60;63.30;;;;;;5036590;28;20469;-48
2022/09/10 10:56:28;;;;;;;4.20;1.20;;;21.60;62.40;;;;;;5044838;28;20449;-49
2022/09/10 10:59:13;;;;;;;1.30;1.00;;;21.40;62.80;;;;;;5050243;28;20800;-47
2022/09/10 11:01:49;;;;;;;2.40;1.20;;;21.40;63.00;;;;;;5043165;28;20455;-49
2022/09/10 11:04:24;;;;;;;4.03;1.00;;;21.60;63.60;;;;;;5047668;28;20494;-47
2022/09/10 11:07:14;;;;;;;2.57;0.97;;;21.70;63.90;;;;;;5032285;28;20490;-47
2022/09/10 11:09:57;;;;;;;1.10;1.00;;;21.80;63.40;;;;;;5044735;28;20447;-50
2022/09/10 11:12:38;;;;;;;2.50;1.27;;;21.90;64.10;;;;;;5047804;28;20568;-47
2022/09/10 11:15:30;;;;;;;1.70;0.97;;;21.90;64.30;;;;;;5049816;28;20442;-47
2022/09/10 11:18:10;;;;;;;1.17;1.00;;;21.90;64.70;;;;;;5051599;28;20471;-47
2022/09/10 11:20:41;;;;;;;2.53;1.10;;;22.00;64.40;;;;;;5040849;28;20454;-50
2022/09/10 11:23:31;;;;;;;1.33;1.00;;;22.20;64.80;;;;;;5040575;28;20844;-47
2022/09/10 11:26:02;;;;;;;1.57;1.20;;;22.20;64.10;;;;;;5046224;28;20483;-48
2022/09/10 11:28:44;;;;;;;3.00;1.30;;;22.30;64.30;;;;;;5048701;28;20586;-46
2022/09/10 11:31:16;;;;;;;2.30;1.33;;;22.50;64.60;;;;;;5043625;28;20522;-47
2022/09/10 11:33:56;;;;;;;1.50;1.23;;;22.60;64.00;;;;;;5037968;28;20944;-48
2022/09/10 11:36:32;;;;;;;1.80;1.10;;;22.70;63.00;;;;;;5039727;28;20440;-46
2022/09/10 11:39:22;;;;;;;3.00;1.40;;;22.80;62.60;;;;;;5034951;28;20853;-50
2022/09/10 11:41:53;;;;;;;3.63;1.40;;;22.80;62.40;;;;;;5049254;28;20443;-49
2022/09/10 11:44:45;;;;;;;2.20;1.20;;;22.60;61.30;;;;;;5046285;28;20474;-49
2022/09/10 11:47:22;;;;;;;2.27;1.33;;;22.70;62.80;;;;;;5041981;28;20454;-51
2022/09/10 11:49:51;;;;;;;1.33;1.07;;;22.70;62.80;;;;;;5043830;28;20997;-47
2022/09/10 11:52:18;;;;;;;3.20;1.10;;;22.80;61.70;;;;;;5044533;28;20450;-46
2022/09/10 11:54:46;;;;;;;3.20;1.73;;;22.90;61.50;;;;;;5047205;28;20484;-50
2022/09/10 11:57:23;;;;;;;1.60;1.00;;;23.00;62.20;;;;;;5038456;28;20807;-47
2022/09/10 12:00:08;;;;;;;2.30;1.00;;;23.20;62.00;;;;;;5045375;28;20835;-46
2022/09/10 12:02:56;;;;;;;2.70;1.10;;;23.30;59.10;;;;;;5034518;28;20456;-46
2022/09/10 12:05:36;;;;;;;3.27;1.17;;;23.00;57.30;;;;;;5042723;28;20527;-50
2022/09/10 12:08:18;;;;;;;1.27;0.90;;;23.00;58.40;;;;;;5042725;28;20446;-46
2022/09/10 12:11:07;;;;;;;1.30;1.00;;;22.80;58.40;;;;;;5033815;28;20841;-48
2022/09/10 12:13:38;;;;;;;2.23;1.17;;;22.10;59.70;;;;;;5021838;28;20875;-46
2022/09/10 12:16:18;;;;;;;2.60;1.70;;;21.70;61.60;;;;;;5041112;28;20439;-46
2022/09/10 12:18:50;;;;;;;2.70;1.40;;;21.80;62.70;;;;;;5034964;28;20463;-47
2022/09/10 12:21:46;;;;;;;2.17;1.00;;;21.90;63.50;;;;;;5034064;28;20444;-47
2022/09/10 12:24:29;;;;;;;1.63;1.50;;;22.20;64.50;;;;;;5041632;28;20487;-49
2022/09/10 12:26:58;;;;;;;3.03;2.03;;;22.50;64.10;;;;;;5039019;28;20972;-49
2022/09/10 12:29:25;;;;;;;3.37;1.60;;;22.70;64.70;;;;;;5043400;28;20807;-47
2022/09/10 12:32:18;;;;;;;3.17;1.23;;;22.80;65.30;;;;;;5035166;28;20455;-49
2022/09/10 12:34:49;;;;;;;3.80;2.03;;;22.90;65.70;;;;;;5049415;28;20451;-46
2022/09/10 12:37:26;;;;;;;5.00;1.20;;;23.00;67.80;;;;;;5046676;28;20495;-47
2022/09/10 12:40:24;;;;;;;1.80;1.30;;;23.10;62.10;;;;;;5038250;28;21052;-48
2022/09/10 12:42:50;;;;;;;2.03;1.43;;;23.30;59.90;;;;;;5036413;28;20455;-46
2022/09/10 12:45:54;;;;;;;2.40;1.40;;;23.50;60.80;;;;;;5034589;28;20498;-45
2022/09/10 12:48:20;;;;;;;4.50;1.63;;;23.60;58.80;;;;;;5034119;28;20459;-46
2022/09/10 12:50:55;;;;;;;1.80;1.23;;;23.30;57.30;;;;;;5048587;28;20474;-45
2022/09/10 12:54:05;;;;;;;2.40;1.17;;;23.30;57.30;;;;;;5039625;28;20618;-47
2022/09/10 12:56:52;;;;;;;2.23;1.70;;;23.30;57.80;;;;;;5003100;28;20457;-45
2022/09/10 12:59:36;;;;;;;1.37;1.13;;;23.50;58.20;;;;;;4995761;28;20453;-45
2022/09/10 13:02:02;;;;;;;3.57;1.40;;;23.40;57.10;;;;;;5036895;28;20451;-45
2022/09/10 13:04:36;;;;;;;1.40;1.23;;;23.40;57.60;;;;;;5049954;28;20872;-45
2022/09/10 13:07:21;;;;;;;2.97;1.20;;;23.60;57.80;;;;;;5049596;28;20184;-45
2022/09/10 13:10:15;;;;;;;2.80;1.00;;;23.50;57.50;;;;;;5047445;28;20449;-46